createdAt,value
2018-09-24T00:00:55.920Z,99.90
2018-09-24T00:03:25.185Z,99.90
2018-09-24T00:05:54.279Z,99.90
2018-09-24T00:08:23.295Z,99.90
2018-09-24T00:10:52.363Z,99.90
2018-09-24T00:13:21.452Z,99.90
2018-09-24T00:15:50.444Z,99.90
2018-09-24T00:18:19.435Z,99.90
2018-09-24T00:20:48.483Z,99.90
2018-09-24T00:23:17.630Z,99.20
2018-09-24T00:25:46.608Z,92.00
2018-09-24T00:28:15.721Z,90.10
2018-09-24T00:30:44.932Z,80.20
2018-09-24T00:33:14.048Z,74.30
2018-09-24T00:35:43.077Z,73.20
2018-09-24T00:38:12.100Z,74.70
2018-09-24T00:40:41.201Z,77.60
2018-09-24T00:43:10.330Z,80.60
2018-09-24T00:45:39.426Z,84.20
2018-09-24T00:48:08.574Z,87.00
2018-09-24T00:50:37.778Z,90.00
2018-09-24T00:53:07.369Z,91.00
2018-09-24T00:55:36.597Z,92.60
2018-09-24T00:58:05.922Z,93.00
2018-09-24T01:00:35.894Z,94.70
2018-09-24T01:03:05.093Z,95.20
2018-09-24T01:05:34.381Z,95.70
2018-09-24T01:08:03.371Z,96.20
2018-09-24T01:10:32.544Z,97.30
2018-09-24T01:13:01.732Z,98.10
2018-09-24T01:15:30.660Z,98.50
2018-09-24T01:17:59.672Z,98.90
2018-09-24T01:20:28.739Z,99.40
2018-09-24T01:22:57.802Z,99.90
2018-09-24T01:25:26.952Z,99.90
2018-09-24T01:27:56.052Z,99.90
2018-09-24T01:30:25.040Z,99.90
2018-09-24T01:32:54.029Z,99.90
2018-09-24T01:35:23.159Z,99.90
2018-09-24T01:37:52.420Z,99.90
2018-09-24T01:40:21.525Z,99.90
2018-09-24T01:42:50.512Z,99.90
2018-09-24T01:45:19.608Z,99.90
2018-09-24T01:47:48.724Z,99.90
2018-09-24T01:50:17.799Z,99.90
2018-09-24T01:52:46.878Z,99.90
2018-09-24T01:55:15.981Z,99.90
2018-09-24T01:57:45.080Z,99.90
2018-09-24T02:00:14.300Z,99.90
2018-09-24T02:02:43.357Z,99.60
2018-09-24T02:05:16.766Z,99.60
2018-09-24T02:07:45.863Z,98.70
2018-09-24T02:10:15.327Z,98.10
2018-09-24T02:12:44.459Z,98.20
2018-09-24T02:15:13.632Z,98.40
2018-09-24T02:17:42.768Z,98.30
2018-09-24T02:20:11.855Z,98.20
2018-09-24T02:22:40.948Z,98.20
2018-09-24T02:25:09.929Z,98.30
2018-09-24T02:27:38.924Z,98.50
2018-09-24T02:30:08.117Z,98.80
2018-09-24T02:32:37.123Z,98.50
2018-09-24T02:35:06.173Z,98.10
2018-09-24T02:37:35.254Z,97.70
2018-09-24T02:40:04.607Z,97.30
2018-09-24T02:42:33.618Z,97.40
2018-09-24T02:45:02.600Z,97.20
2018-09-24T02:47:33.608Z,97.10
2018-09-24T02:50:03.480Z,97.30
2018-09-24T02:52:32.628Z,97.80
2018-09-24T02:55:01.828Z,97.70
2018-09-24T02:57:30.927Z,97.40
2018-09-24T03:00:00.040Z,98.20
2018-09-24T03:02:29.127Z,97.90
2018-09-24T03:04:58.223Z,97.50
2018-09-24T03:07:27.199Z,97.20
2018-09-24T03:09:56.275Z,96.40
2018-09-24T03:12:25.413Z,95.90
2018-09-24T03:14:54.494Z,95.90
2018-09-24T03:17:23.540Z,96.70
2018-09-24T03:19:52.655Z,97.00
2018-09-24T03:22:25.128Z,96.30
2018-09-24T03:24:55.060Z,97.00
2018-09-24T03:27:24.773Z,96.90
2018-09-24T03:29:53.871Z,96.20
2018-09-24T03:32:22.856Z,97.10
2018-09-24T03:34:51.970Z,97.00
2018-09-24T03:37:20.980Z,96.90
2018-09-24T03:39:50.133Z,96.90
2018-09-24T03:42:19.132Z,96.50
2018-09-24T03:44:48.351Z,96.30
2018-09-24T03:47:17.415Z,95.80
2018-09-24T03:49:46.655Z,95.70
2018-09-24T03:52:15.724Z,95.50
2018-09-24T03:54:44.815Z,95.80
2018-09-24T03:57:13.804Z,95.30
2018-09-24T03:59:42.904Z,95.70
2018-09-24T04:02:12.005Z,95.90
2018-09-24T04:04:46.103Z,96.70
2018-09-24T04:07:20.376Z,96.30
2018-09-24T04:09:54.752Z,96.40
2018-09-24T04:12:29.048Z,96.20
2018-09-24T04:15:03.126Z,95.80
2018-09-24T04:17:37.408Z,95.40
2018-09-24T04:20:11.676Z,95.40
2018-09-24T04:22:45.932Z,95.20
2018-09-24T04:25:19.982Z,95.00
2018-09-24T04:27:54.123Z,94.60
2018-09-24T04:30:28.258Z,94.40
2018-09-24T04:33:02.541Z,95.20
2018-09-24T04:35:37.067Z,95.10
2018-09-24T04:38:11.240Z,94.70
2018-09-24T04:40:45.388Z,94.30
2018-09-24T04:43:19.792Z,94.20
2018-09-24T04:45:54.025Z,93.70
2018-09-24T04:48:28.368Z,93.20
2018-09-24T04:51:02.533Z,93.10
2018-09-24T04:53:36.869Z,92.70
2018-09-24T04:56:11.118Z,93.70
2018-09-24T04:58:45.097Z,93.70
2018-09-24T05:01:19.203Z,93.70
2018-09-24T05:03:53.627Z,93.80
2018-09-24T05:06:27.696Z,93.10
2018-09-24T05:09:01.887Z,92.80
2018-09-24T05:11:36.147Z,92.90
2018-09-24T05:14:10.385Z,92.30
2018-09-24T05:16:44.410Z,93.00
2018-09-24T05:19:18.813Z,92.70
2018-09-24T05:21:53.079Z,92.50
2018-09-24T05:24:27.307Z,92.10
2018-09-24T05:27:01.563Z,91.90
2018-09-24T05:29:35.611Z,91.60
2018-09-24T05:32:09.512Z,91.10
2018-09-24T05:34:43.376Z,91.40
2018-09-24T05:37:17.906Z,91.50
2018-09-24T05:39:52.201Z,91.40
2018-09-24T05:42:26.305Z,92.40
2018-09-24T05:45:00.448Z,93.20
2018-09-24T05:47:34.542Z,93.10
2018-09-24T05:50:08.792Z,93.00
2018-09-24T05:52:43.042Z,92.70
2018-09-24T05:55:17.223Z,92.60
2018-09-24T05:57:51.281Z,92.50
2018-09-24T06:00:25.356Z,92.40
2018-09-24T06:02:59.517Z,92.20
2018-09-24T06:05:33.692Z,92.40
2018-09-24T06:08:07.875Z,91.80
2018-09-24T06:10:42.018Z,92.60
2018-09-24T06:13:16.065Z,92.70
2018-09-24T06:15:50.419Z,92.70
2018-09-24T06:18:24.717Z,92.80
2018-09-24T06:20:58.839Z,92.50
2018-09-24T06:23:32.938Z,92.60
2018-09-24T06:26:07.271Z,92.30
2018-09-24T06:28:41.438Z,92.20
2018-09-24T06:31:15.846Z,92.90
2018-09-24T06:33:50.220Z,93.80
2018-09-24T06:36:24.458Z,94.00
2018-09-24T06:38:58.655Z,94.10
2018-09-24T06:41:32.748Z,93.90
2018-09-24T06:44:06.907Z,93.50
2018-09-24T06:46:41.049Z,94.00
2018-09-24T06:49:15.128Z,94.40
2018-09-24T06:51:49.417Z,94.20
2018-09-24T06:54:30.580Z,94.60
2018-09-24T06:57:04.772Z,95.10
2018-09-24T06:59:39.031Z,97.20
2018-09-24T07:02:13.385Z,97.70
2018-09-24T07:04:47.480Z,97.10
2018-09-24T07:07:21.779Z,97.60
2018-09-24T07:09:55.940Z,97.20
2018-09-24T07:12:29.996Z,97.10
2018-09-24T07:15:04.210Z,97.50
2018-09-24T07:17:38.368Z,97.60
2018-09-24T07:20:12.731Z,97.00
2018-09-24T07:22:46.924Z,96.90
2018-09-24T07:25:21.125Z,96.90
2018-09-24T07:27:55.454Z,95.90
2018-09-24T07:30:29.538Z,96.40
2018-09-24T07:33:03.949Z,96.60
2018-09-24T07:35:38.133Z,95.80
2018-09-24T07:38:12.377Z,95.40
2018-09-24T07:40:46.768Z,95.60
2018-09-24T07:43:21.071Z,95.80
2018-09-24T07:45:55.292Z,94.10
2018-09-24T07:48:29.548Z,94.60
2018-09-24T07:51:03.936Z,95.10
2018-09-24T07:53:38.234Z,94.40
2018-09-24T07:56:12.412Z,94.50
2018-09-24T07:58:46.692Z,91.60
2018-09-24T08:01:20.885Z,92.80
2018-09-24T08:03:55.224Z,93.30
2018-09-24T08:06:29.741Z,91.80
2018-09-24T08:09:04.079Z,84.10
2018-09-24T08:11:38.508Z,79.50
2018-09-24T08:14:12.605Z,81.60
2018-09-24T08:16:46.844Z,78.30
2018-09-24T08:19:21.012Z,77.50
2018-09-24T08:21:55.126Z,73.30
2018-09-24T08:24:29.412Z,69.30
2018-09-24T08:27:03.536Z,70.80
2018-09-24T08:29:37.738Z,72.00
2018-09-24T08:32:12.016Z,73.20
2018-09-24T08:34:46.279Z,73.20
2018-09-24T08:37:20.461Z,67.50
2018-09-24T08:39:54.661Z,67.90
2018-09-24T08:42:28.810Z,71.40
2018-09-24T08:45:03.121Z,68.50
2018-09-24T08:47:37.106Z,68.40
2018-09-24T08:50:11.300Z,66.70
2018-09-24T08:52:45.598Z,67.20
2018-09-24T08:55:19.964Z,68.80
2018-09-24T08:57:54.352Z,63.80
2018-09-24T09:00:28.487Z,65.00
2018-09-24T09:03:02.778Z,65.70
2018-09-24T09:05:37.085Z,62.90
2018-09-24T09:08:11.629Z,62.20
2018-09-24T09:10:46.032Z,61.40
2018-09-24T09:13:20.323Z,58.80
2018-09-24T09:15:54.672Z,58.70
2018-09-24T09:18:28.904Z,57.70
2018-09-24T09:21:03.172Z,59.20
2018-09-24T09:23:37.525Z,58.60
2018-09-24T09:26:11.724Z,57.80
2018-09-24T09:28:45.945Z,55.40
2018-09-24T09:31:20.313Z,55.20
2018-09-24T09:33:54.521Z,55.00
2018-09-24T09:36:28.757Z,54.80
2018-09-24T09:39:02.956Z,56.20
2018-09-24T09:41:37.175Z,57.00
2018-09-24T09:44:11.532Z,55.80
2018-09-24T09:46:45.810Z,53.80
2018-09-24T09:49:20.166Z,53.10
2018-09-24T09:51:54.398Z,53.00
2018-09-24T09:54:28.683Z,53.70
2018-09-24T09:57:03.024Z,52.90
2018-09-24T09:59:37.332Z,51.60
2018-09-24T10:02:11.580Z,50.50
2018-09-24T10:04:46.015Z,51.00
2018-09-24T10:07:20.164Z,50.90
2018-09-24T10:09:54.210Z,51.40
2018-09-24T10:12:28.431Z,51.30
2018-09-24T10:15:02.514Z,52.90
2018-09-24T10:17:36.906Z,50.00
2018-09-24T10:20:11.254Z,47.00
2018-09-24T10:22:45.635Z,46.80
2018-09-24T10:25:19.756Z,46.40
2018-09-24T10:27:53.987Z,46.50
2018-09-24T10:30:28.232Z,46.10
2018-09-24T10:33:02.365Z,45.20
2018-09-24T10:35:36.501Z,45.10
2018-09-24T10:38:10.761Z,45.00
2018-09-24T10:40:45.080Z,44.70
2018-09-24T10:43:19.432Z,44.60
2018-09-24T10:45:53.780Z,44.20
2018-09-24T10:48:27.928Z,43.60
2018-09-24T10:51:02.127Z,43.10
2018-09-24T10:53:36.560Z,42.50
2018-09-24T10:56:10.827Z,42.30
2018-09-24T10:58:45.085Z,42.60
2018-09-24T11:01:19.510Z,40.90
2018-09-24T11:03:53.817Z,40.80
2018-09-24T11:06:28.250Z,41.70
2018-09-24T11:09:02.588Z,41.30
2018-09-24T11:11:36.658Z,41.30
2018-09-24T11:14:11.097Z,41.60
2018-09-24T11:16:45.649Z,41.30
2018-09-24T11:19:19.680Z,40.70
2018-09-24T11:21:53.740Z,43.40
2018-09-24T11:24:27.955Z,40.20
2018-09-24T11:27:02.145Z,40.40
2018-09-24T11:29:36.348Z,40.60
2018-09-24T11:32:10.404Z,41.00
2018-09-24T11:34:44.814Z,38.20
2018-09-24T11:37:19.034Z,39.00
2018-09-24T11:39:53.295Z,39.60
2018-09-24T11:42:27.298Z,38.20
2018-09-24T11:45:01.569Z,38.30
2018-09-24T11:47:35.670Z,37.80
2018-09-24T11:50:10.084Z,37.20
2018-09-24T11:52:44.726Z,37.50
2018-09-24T11:55:19.145Z,37.00
2018-09-24T11:57:53.179Z,37.30
2018-09-24T12:00:27.453Z,36.50
2018-09-24T12:03:01.640Z,36.80
2018-09-24T12:05:35.882Z,37.90
2018-09-24T12:08:10.323Z,37.30
2018-09-24T12:10:44.444Z,37.20
2018-09-24T12:13:18.784Z,36.40
2018-09-24T12:15:53.053Z,35.70
2018-09-24T12:18:27.085Z,37.20
2018-09-24T12:21:01.394Z,36.40
2018-09-24T12:23:35.468Z,35.10
2018-09-24T12:26:09.721Z,35.10
2018-09-24T12:28:43.756Z,34.80
2018-09-24T12:31:18.013Z,34.80
2018-09-24T12:33:52.261Z,34.30
2018-09-24T12:36:26.309Z,34.20
2018-09-24T12:39:00.336Z,34.00
2018-09-24T12:41:34.720Z,34.90
2018-09-24T12:44:09.004Z,34.90
2018-09-24T12:46:43.136Z,34.00
2018-09-24T12:49:17.429Z,33.30
2018-09-24T12:51:51.768Z,33.00
2018-09-24T12:54:25.778Z,33.90
2018-09-24T12:57:00.108Z,33.70
2018-09-24T12:59:34.313Z,34.30
2018-09-24T13:02:08.608Z,33.80
2018-09-24T13:04:42.704Z,33.10
2018-09-24T13:07:16.975Z,32.00
2018-09-24T13:09:57.893Z,31.80
2018-09-24T13:12:32.211Z,32.10
2018-09-24T13:15:06.269Z,33.80
2018-09-24T13:17:40.539Z,32.10
2018-09-24T13:20:14.990Z,30.60
2018-09-24T13:22:49.305Z,30.30
2018-09-24T13:25:23.866Z,31.20
2018-09-24T13:27:58.350Z,30.60
2018-09-24T13:30:31.648Z,31.40
2018-09-24T13:33:05.160Z,31.40
2018-09-24T13:35:38.428Z,31.80
2018-09-24T13:38:11.727Z,30.80
2018-09-24T13:40:44.996Z,31.60
2018-09-24T13:43:18.375Z,31.40
2018-09-24T13:45:52.532Z,30.60
2018-09-24T13:48:26.833Z,30.50
2018-09-24T13:51:00.242Z,30.70
2018-09-24T13:53:33.639Z,31.60
2018-09-24T13:56:07.028Z,30.20
2018-09-24T13:58:40.331Z,30.90
2018-09-24T14:01:13.636Z,30.80
2018-09-24T14:03:47.115Z,29.80
2018-09-24T14:06:20.511Z,29.10
2018-09-24T14:08:53.894Z,30.20
2018-09-24T14:11:27.408Z,29.30
2018-09-24T14:14:00.813Z,30.30
2018-09-24T14:16:34.262Z,30.80
2018-09-24T14:19:07.784Z,29.00
2018-09-24T14:21:41.206Z,29.70
2018-09-24T14:24:14.656Z,29.60
2018-09-24T14:26:48.289Z,29.20
2018-09-24T14:29:21.894Z,29.70
2018-09-24T14:31:55.196Z,29.00
2018-09-24T14:34:28.574Z,28.60
2018-09-24T14:37:02.181Z,29.70
2018-09-24T14:39:35.780Z,30.30
2018-09-24T14:42:09.116Z,29.70
2018-09-24T14:44:42.451Z,28.90
2018-09-24T14:47:15.724Z,29.30
2018-09-24T14:49:49.055Z,29.20
2018-09-24T14:52:22.387Z,29.70
2018-09-24T14:54:55.955Z,29.20
2018-09-24T14:57:29.653Z,29.40
2018-09-24T15:00:03.027Z,30.20
2018-09-24T15:02:36.549Z,30.10
2018-09-24T15:05:09.837Z,29.40
2018-09-24T15:07:43.209Z,28.90
2018-09-24T15:10:17.464Z,29.20
2018-09-24T15:12:50.952Z,28.60
2018-09-24T15:15:24.343Z,28.80
2018-09-24T15:17:57.771Z,29.60
2018-09-24T15:20:31.243Z,29.10
2018-09-24T15:23:05.555Z,28.80
2018-09-24T15:25:39.606Z,28.90
2018-09-24T15:28:13.754Z,28.90
2018-09-24T15:30:48.131Z,28.70
2018-09-24T15:33:21.695Z,29.50
2018-09-24T15:35:55.295Z,30.10
2018-09-24T15:38:28.670Z,29.50
2018-09-24T15:41:02.349Z,29.10
2018-09-24T15:43:36.613Z,29.50
2018-09-24T15:46:10.970Z,29.80
2018-09-24T15:48:45.166Z,30.00
2018-09-24T15:51:19.467Z,29.70
2018-09-24T15:53:53.777Z,29.60
2018-09-24T15:56:28.001Z,30.10
2018-09-24T15:59:02.206Z,29.40
2018-09-24T16:01:36.596Z,29.40
2018-09-24T16:04:10.823Z,29.50
2018-09-24T16:06:44.987Z,29.70
2018-09-24T16:09:19.398Z,30.00
2018-09-24T16:11:53.597Z,29.90
2018-09-24T16:14:27.979Z,30.20
2018-09-24T16:17:02.299Z,29.90
2018-09-24T16:19:36.435Z,30.00
2018-09-24T16:22:10.770Z,29.90
2018-09-24T16:24:44.830Z,30.10
2018-09-24T16:27:18.871Z,30.60
2018-09-24T16:29:52.899Z,31.10
2018-09-24T16:32:27.194Z,31.40
2018-09-24T16:35:01.404Z,31.50
2018-09-24T16:37:35.862Z,32.20
2018-09-24T16:40:10.025Z,32.20
2018-09-24T16:42:44.193Z,32.30
2018-09-24T16:45:18.471Z,32.00
2018-09-24T16:47:52.746Z,32.40
2018-09-24T16:50:27.220Z,33.80
2018-09-24T16:53:01.511Z,34.40
2018-09-24T16:55:35.668Z,34.50
2018-09-24T16:58:09.862Z,34.70
2018-09-24T17:00:44.166Z,35.50
2018-09-24T17:03:18.484Z,35.30
2018-09-24T17:05:52.823Z,35.90
2018-09-24T17:08:27.037Z,36.30
2018-09-24T17:11:01.242Z,35.90
2018-09-24T17:13:35.424Z,35.30
2018-09-24T17:16:09.694Z,35.50
2018-09-24T17:18:44.021Z,35.90
2018-09-24T17:21:18.155Z,35.80
2018-09-24T17:23:52.316Z,36.20
2018-09-24T17:26:26.439Z,36.30
2018-09-24T17:29:00.800Z,36.20
2018-09-24T17:31:35.069Z,37.00
2018-09-24T17:34:09.549Z,37.80
2018-09-24T17:36:43.763Z,38.50
2018-09-24T17:39:18.073Z,38.10
2018-09-24T17:41:56.267Z,38.90
2018-09-24T17:44:32.530Z,39.00
2018-09-24T17:47:08.309Z,39.00
2018-09-24T17:49:42.909Z,38.50
2018-09-24T17:52:17.523Z,38.50
2018-09-24T17:54:51.704Z,38.70
2018-09-24T17:57:25.820Z,40.40
2018-09-24T18:00:00.252Z,40.70
2018-09-24T18:02:34.476Z,41.60
2018-09-24T18:05:08.692Z,42.10
2018-09-24T18:07:42.881Z,41.60
2018-09-24T18:10:17.310Z,42.30
2018-09-24T18:12:51.402Z,42.10
2018-09-24T18:15:25.518Z,42.10
2018-09-24T18:17:59.570Z,42.40
2018-09-24T18:20:34.072Z,42.50
2018-09-24T18:23:08.248Z,42.90
2018-09-24T18:25:42.262Z,43.10
2018-09-24T18:28:16.496Z,43.30
2018-09-24T18:30:50.658Z,43.10
2018-09-24T18:33:24.808Z,42.20
2018-09-24T18:35:58.977Z,43.10
2018-09-24T18:38:32.977Z,42.90
2018-09-24T18:41:07.314Z,43.10
2018-09-24T18:43:41.522Z,43.50
2018-09-24T18:46:15.897Z,43.60
2018-09-24T18:48:49.983Z,43.80
2018-09-24T18:51:24.086Z,43.70
2018-09-24T18:53:58.236Z,44.00
2018-09-24T18:56:32.582Z,44.50
2018-09-24T18:59:06.660Z,45.20
2018-09-24T19:01:40.987Z,45.40
2018-09-24T19:04:15.261Z,46.00
2018-09-24T19:06:49.398Z,48.00
2018-09-24T19:09:23.710Z,46.80
2018-09-24T19:11:57.869Z,46.00
2018-09-24T19:14:31.983Z,45.60
2018-09-24T19:17:06.217Z,45.60
2018-09-24T19:19:40.584Z,45.30
2018-09-24T19:22:14.797Z,45.70
2018-09-24T19:24:49.217Z,45.70
2018-09-24T19:27:23.508Z,46.30
2018-09-24T19:29:57.731Z,46.50
2018-09-24T19:32:31.860Z,46.60
2018-09-24T19:35:06.239Z,46.90
2018-09-24T19:37:40.633Z,46.90
2018-09-24T19:40:14.760Z,47.10
2018-09-24T19:42:49.032Z,47.20
2018-09-24T19:45:23.244Z,47.60
2018-09-24T19:47:57.440Z,48.00
2018-09-24T19:50:31.979Z,47.30
2018-09-24T19:53:06.236Z,47.80
2018-09-24T19:55:40.355Z,48.40
2018-09-24T19:58:14.719Z,48.30
2018-09-24T20:00:48.941Z,48.30
2018-09-24T20:03:23.156Z,48.50
2018-09-24T20:05:57.478Z,48.70
2018-09-24T20:08:31.693Z,48.30
2018-09-24T20:11:05.980Z,48.70
2018-09-24T20:13:40.089Z,49.00
2018-09-24T20:16:14.183Z,49.10
2018-09-24T20:18:48.548Z,49.80
2018-09-24T20:21:22.834Z,50.00
2018-09-24T20:23:56.993Z,49.80
2018-09-24T20:26:30.957Z,50.40
2018-09-24T20:29:05.307Z,51.00
2018-09-24T20:31:39.501Z,50.30
2018-09-24T20:34:13.892Z,50.90
2018-09-24T20:36:47.990Z,50.60
2018-09-24T20:39:22.036Z,50.60
2018-09-24T20:41:56.177Z,50.40
2018-09-24T20:44:30.489Z,50.30
2018-09-24T20:47:04.772Z,50.40
2018-09-24T20:49:38.841Z,50.80
2018-09-24T20:52:13.238Z,51.30
2018-09-24T20:54:47.488Z,51.60
2018-09-24T20:57:21.677Z,51.40
2018-09-24T20:59:55.781Z,51.30
2018-09-24T21:02:30.046Z,51.40
2018-09-24T21:05:04.246Z,51.50
2018-09-24T21:07:38.381Z,51.60
2018-09-24T21:10:12.883Z,52.50
2018-09-24T21:12:46.877Z,52.50
2018-09-24T21:15:21.068Z,52.20
2018-09-24T21:17:55.387Z,52.50
2018-09-24T21:20:29.754Z,52.70
2018-09-24T21:23:03.998Z,52.90
2018-09-24T21:25:38.544Z,53.30
2018-09-24T21:28:12.804Z,53.20
2018-09-24T21:30:47.040Z,52.80
2018-09-24T21:33:21.200Z,52.90
2018-09-24T21:35:55.416Z,52.80
2018-09-24T21:38:29.613Z,52.70
2018-09-24T21:41:04.033Z,52.50
2018-09-24T21:43:38.229Z,53.60
2018-09-24T21:46:12.623Z,53.30
2018-09-24T21:48:46.676Z,53.90
2018-09-24T21:51:20.932Z,53.60
2018-09-24T21:53:55.048Z,53.50
2018-09-24T21:56:29.320Z,53.50
2018-09-24T21:59:03.331Z,53.50
2018-09-24T22:01:37.547Z,53.60
2018-09-24T22:04:11.727Z,53.50
2018-09-24T22:06:45.852Z,53.40
2018-09-24T22:09:19.989Z,54.20
2018-09-24T22:11:54.158Z,54.20
2018-09-24T22:14:28.189Z,54.20
2018-09-24T22:17:02.335Z,53.90
2018-09-24T22:19:36.423Z,54.00
2018-09-24T22:22:10.839Z,53.90
2018-09-24T22:24:45.202Z,53.80
2018-09-24T22:27:19.257Z,55.00
2018-09-24T22:29:53.311Z,54.50
2018-09-24T22:32:27.532Z,54.30
2018-09-24T22:35:01.927Z,54.40
2018-09-24T22:37:36.173Z,54.20
2018-09-24T22:40:10.765Z,54.20
2018-09-24T22:42:45.100Z,55.00
2018-09-24T22:45:19.159Z,54.70
2018-09-24T22:47:53.336Z,54.60
2018-09-24T22:50:27.529Z,54.80
2018-09-24T22:53:01.792Z,55.10
2018-09-24T22:55:35.950Z,54.70
2018-09-24T22:58:10.474Z,55.00
2018-09-24T23:00:44.704Z,55.20
2018-09-24T23:03:18.811Z,54.70
2018-09-24T23:05:53.117Z,55.20
2018-09-24T23:08:27.379Z,55.30
2018-09-24T23:11:01.400Z,55.30
2018-09-24T23:13:35.764Z,55.50
2018-09-24T23:16:09.961Z,55.40
2018-09-24T23:18:44.072Z,55.50
2018-09-24T23:21:18.512Z,55.80
2018-09-24T23:23:52.631Z,55.90
2018-09-24T23:26:26.760Z,55.90
2018-09-24T23:29:01.053Z,55.70
2018-09-24T23:31:35.212Z,55.30
2018-09-24T23:34:09.312Z,55.00
2018-09-24T23:36:43.455Z,56.30
2018-09-24T23:39:17.699Z,56.20
2018-09-24T23:41:51.880Z,57.10
2018-09-24T23:44:26.339Z,57.70
2018-09-24T23:47:00.389Z,57.80
2018-09-24T23:49:34.567Z,57.90
2018-09-24T23:52:08.622Z,57.40
2018-09-24T23:54:42.994Z,57.60
2018-09-24T23:57:17.040Z,57.80
2018-09-24T23:59:51.230Z,57.30
